Terminal Aerodrome Forecast
Issued by NWS Tallahassee, FL

Home | Current Version | Previous Version | Text Only | Print | Product List | Glossary On
Versions: 1 2 3 4 5 6 7 8 9 10 11 12 13 14 15
204
FTUS42 KTAE 281310 AAB
TAFTLH
TAF AMD
KTLH 281310Z 2813/2912 27005KT P6SM SCT015
      TEMPO 2813/2815 BKN015
     FM281500 27010KT P6SM SCT030
     FM290000 24004KT P6SM SCT040
     FM290600 27003KT 5SM BR SCT005 BKN010=

USA.gov is the U.S. government's official web portal to all federal, state and local government web resources and services.